Time;durP1;ratioP1;P1;durP2;ratioP2;P2;SDS_P1;SDS_P2;PMS_P1;PMS_P2;Temp;Humidity;BMP_temperature;BMP_pressure;BME280_temperature;BME280_humidity;BME280_pressure;Samples;Min_cycle;Max_cycle;Signal;HPM_P1;HPM_P2
2022/05/16 00:02:24;;;;;;;;;;;14.90;98.90;;;;;;5090092;27;37460;-45
2022/05/16 00:04:51;;;;;;;;;;;14.90;98.90;;;;;;5091693;27;38026;-47
2022/05/16 00:07:20;;;;;;;;;;;14.90;98.80;;;;;;5088492;27;37403;-48
2022/05/16 00:09:47;;;;;;;;;;;14.90;98.80;;;;;;5087658;27;37763;-47
2022/05/16 00:12:16;;;;;;;;;;;14.90;98.80;;;;;;5084259;27;36427;-45
2022/05/16 00:14:44;;;;;;;;;;;14.90;98.70;;;;;;5088822;27;38390;-45
2022/05/16 00:17:12;;;;;;;;;;;14.90;98.60;;;;;;5088924;27;36149;-46
2022/05/16 00:19:39;;;;;;;;;;;14.90;98.50;;;;;;5090508;27;36696;-50
2022/05/16 00:22:06;;;;;;;;;;;14.90;98.40;;;;;;5088262;27;38839;-48
2022/05/16 00:24:33;;;;;;;;;;;14.80;98.20;;;;;;5090970;27;39006;-47
2022/05/16 00:27:01;;;;;;;;;;;14.90;98.10;;;;;;5090494;27;37711;-48
2022/05/16 00:29:29;;;;;;;;;;;14.80;98.00;;;;;;5089681;27;36146;-46
2022/05/16 00:31:56;;;;;;;;;;;14.80;98.00;;;;;;5088262;27;36445;-45
2022/05/16 00:34:24;;;;;;;;;;;14.80;97.80;;;;;;5089706;27;37881;-47
2022/05/16 00:36:51;;;;;;;;;;;14.80;97.80;;;;;;5091553;27;38442;-47
2022/05/16 00:39:18;;;;;;;;;;;14.80;97.80;;;;;;5089813;27;36424;-49
2022/05/16 00:41:46;;;;;;;;;;;14.80;97.50;;;;;;5089117;27;37968;-48
2022/05/16 00:44:14;;;;;;;;;;;14.80;97.50;;;;;;5089747;27;39152;-45
2022/05/16 00:46:42;;;;;;;;;;;14.80;97.40;;;;;;5089035;27;37774;-45
2022/05/16 00:49:12;;;;;;;;;;;14.80;97.30;;;;;;5089237;27;36163;-45
2022/05/16 00:51:42;;;;;;;;;;;14.80;97.10;;;;;;5090283;27;38549;-45
2022/05/16 00:54:10;;;;;;;;;;;14.70;97.10;;;;;;5090115;27;38360;-46
2022/05/16 00:56:38;;;;;;;;;;;14.70;97.10;;;;;;5090329;27;37256;-47
2022/05/16 00:59:05;;;;;;;;;;;14.70;96.90;;;;;;5089423;27;37397;-46
2022/05/16 01:07:03;;;;;;;;;;;14.70;96.90;;;;;;5089296;27;37360;-46
2022/05/16 01:09:30;;;;;;;;;;;14.70;96.60;;;;;;5090334;27;36657;-44
2022/05/16 01:11:58;;;;;;;;;;;14.60;96.70;;;;;;5087281;27;38796;-46
2022/05/16 01:14:38;;;;;;;;;;;14.60;96.60;;;;;;5088582;27;36653;-46
2022/05/16 01:17:05;;;;;;;;;;;14.70;96.60;;;;;;5085899;27;37050;-46
2022/05/16 01:19:34;;;;;;;;;;;14.60;96.50;;;;;;5087651;27;36539;-49
2022/05/16 01:22:06;;;;;;;;;;;14.60;96.40;;;;;;5089849;27;38295;-50
2022/05/16 01:24:34;;;;;;;;;;;14.50;96.30;;;;;;5092116;27;38534;-48
2022/05/16 01:27:01;;;;;;;;;;;14.50;96.40;;;;;;5091840;27;37726;-45
2022/05/16 01:29:28;;;;;;;;;;;14.50;96.10;;;;;;5091955;27;36382;-46
2022/05/16 01:31:55;;;;;;;;;;;14.50;96.20;;;;;;5092018;27;37964;-45
2022/05/16 01:34:22;;;;;;;;;;;14.50;96.10;;;;;;5093859;27;36803;-46
2022/05/16 01:36:49;;;;;;;;;;;14.50;96.00;;;;;;5092581;27;39335;-48
2022/05/16 01:39:16;;;;;;;;;;;14.50;95.80;;;;;;5088671;27;35289;-46
2022/05/16 01:41:45;;;;;;;;;;;14.50;95.70;;;;;;5085886;27;36297;-46
2022/05/16 01:44:12;;;;;;;;;;;14.50;95.50;;;;;;5093088;27;39589;-50
2022/05/16 01:46:40;;;;;;;;;;;14.50;95.60;;;;;;5091356;27;37122;-48
2022/05/16 01:49:08;;;;;;;;;;;14.40;95.50;;;;;;5092756;27;36685;-44
2022/05/16 01:51:35;;;;;;;;;;;14.40;95.50;;;;;;5092851;27;39038;-47
2022/05/16 01:54:03;;;;;;;;;;;14.40;95.50;;;;;;5089313;27;38857;-47
2022/05/16 01:56:31;;;;;;;;;;;14.30;95.50;;;;;;5091694;27;37880;-45
2022/05/16 01:58:59;;;;;;;;;;;14.40;95.40;;;;;;5093576;27;37860;-45
2022/05/16 02:01:26;;;;;;;;;;;14.30;95.20;;;;;;5091458;27;38758;-47
2022/05/16 02:03:54;;;;;;;;;;;14.40;95.40;;;;;;5091523;27;37364;-45
2022/05/16 02:06:21;;;;;;;;;;;14.30;95.20;;;;;;5091934;27;36137;-47
2022/05/16 02:08:48;;;;;;;;;;;14.30;95.00;;;;;;5092884;27;36533;-45
2022/05/16 02:11:16;;;;;;;;;;;14.30;95.20;;;;;;5086726;27;38845;-45
2022/05/16 02:13:43;;;;;;;;;;;14.30;94.90;;;;;;5091905;27;39383;-49
2022/05/16 02:16:12;;;;;;;;;;;14.20;94.90;;;;;;5092063;27;37949;-59
2022/05/16 02:18:42;;;;;;;;;;;14.20;94.90;;;;;;5090490;27;36568;-59
2022/05/16 02:26:38;;;;;;;;;;;14.10;94.70;;;;;;5091713;27;37213;-59
2022/05/16 02:29:05;;;;;;;;;;;14.20;94.40;;;;;;5091855;27;36231;-58
2022/05/16 02:31:34;;;;;;;;;;;14.20;94.30;;;;;;5092778;27;37572;-58
2022/05/16 02:34:01;;;;;;;;;;;14.20;94.40;;;;;;5090526;27;36627;-58
2022/05/16 02:36:28;;;;;;;;;;;14.20;94.30;;;;;;5091188;27;36936;-59
2022/05/16 02:38:55;;;;;;;;;;;14.20;94.60;;;;;;5090980;27;35122;-58
2022/05/16 02:41:22;;;;;;;;;;;14.10;94.20;;;;;;5090065;27;38923;-59
2022/05/16 02:43:49;;;;;;;;;;;14.10;94.00;;;;;;5090387;27;37945;-58
2022/05/16 02:46:16;;;;;;;;;;;14.10;94.40;;;;;;5091638;27;37350;-58
2022/05/16 02:48:45;;;;;;;;;;;14.00;94.30;;;;;;5092922;27;37035;-58
2022/05/16 02:51:12;;;;;;;;;;;14.00;94.20;;;;;;5090552;27;37812;-58
2022/05/16 02:53:39;;;;;;;;;;;14.00;94.40;;;;;;5090771;27;40142;-58
2022/05/16 02:56:06;;;;;;;;;;;13.90;94.40;;;;;;5090553;27;39396;-46
2022/05/16 02:58:33;;;;;;;;;;;13.90;94.50;;;;;;5090817;27;35247;-48
2022/05/16 03:01:00;;;;;;;;;;;13.80;94.40;;;;;;5089330;27;37672;-47
2022/05/16 03:03:28;;;;;;;;;;;13.80;94.60;;;;;;5089876;27;37947;-45
2022/05/16 03:05:56;;;;;;;;;;;13.70;94.70;;;;;;5090417;27;37827;-46
2022/05/16 03:08:24;;;;;;;;;;;13.70;94.90;;;;;;5090060;27;36011;-48
2022/05/16 03:10:51;;;;;;;;;;;13.70;95.00;;;;;;5084729;27;37840;-45
2022/05/16 03:13:18;;;;;;;;;;;13.70;94.90;;;;;;5091075;27;37870;-46
2022/05/16 03:15:46;;;;;;;;;;;13.70;94.80;;;;;;5089596;27;38770;-49
2022/05/16 03:18:13;;;;;;;;;;;13.70;94.90;;;;;;5090487;27;36471;-47
2022/05/16 03:20:40;;;;;;;;;;;13.60;95.00;;;;;;5090334;27;37337;-48
2022/05/16 03:23:09;;;;;;;;;;;13.60;94.80;;;;;;5088946;27;38627;-45
2022/05/16 03:25:36;;;;;;;;;;;13.60;94.90;;;;;;5090524;27;38512;-47
2022/05/16 03:28:06;;;;;;;;;;;13.60;95.00;;;;;;5090603;27;35018;-45
2022/05/16 03:30:33;;;;;;;;;;;13.60;95.00;;;;;;5089601;27;37980;-46
2022/05/16 03:33:00;;;;;;;;;;;13.60;95.00;;;;;;5089505;27;36722;-44
2022/05/16 03:35:27;;;;;;;;;;;13.60;94.90;;;;;;5091287;27;37965;-47
2022/05/16 03:37:54;;;;;;;;;;;13.60;94.90;;;;;;5090477;27;38605;-45
2022/05/16 03:43:07;;;;;;;;;;;13.60;94.80;;;;;;5090409;27;38742;-58
2022/05/16 03:45:34;;;;;;;;;;;13.60;94.80;;;;;;5089927;27;38519;-58
2022/05/16 03:48:01;;;;;;;;;;;13.50;94.80;;;;;;5089415;27;36232;-58
2022/05/16 03:50:28;;;;;;;;;;;13.50;94.60;;;;;;5091521;27;37845;-59
2022/05/16 03:52:58;;;;;;;;;;;13.50;94.80;;;;;;5089803;27;37814;-59
2022/05/16 03:55:30;;;;;;;;;;;13.50;94.90;;;;;;5089844;27;37166;-58
2022/05/16 03:57:57;;;;;;;;;;;13.50;94.80;;;;;;5090536;27;36896;-58
2022/05/16 04:00:24;;;;;;;;;;;13.50;94.80;;;;;;5089148;27;38453;-58
2022/05/16 04:02:51;;;;;;;;;;;13.50;95.00;;;;;;5090786;27;37822;-58
2022/05/16 04:05:19;;;;;;;;;;;13.50;95.00;;;;;;5089680;27;37849;-58
2022/05/16 04:07:47;;;;;;;;;;;13.60;95.20;;;;;;5088534;27;36284;-58
2022/05/16 04:10:15;;;;;;;;;;;13.60;95.10;;;;;;5089872;27;38487;-58
2022/05/16 04:12:44;;;;;;;;;;;13.60;95.00;;;;;;5089444;27;36740;-58
2022/05/16 04:15:12;;;;;;;;;;;13.50;95.10;;;;;;5089203;27;35969;-58
2022/05/16 04:17:39;;;;;;;;;;;13.50;94.90;;;;;;5089620;27;37013;-58
2022/05/16 04:20:07;;;;;;;;;;;13.60;95.00;;;;;;5090720;27;38573;-59
2022/05/16 04:22:34;;;;;;;;;;;13.60;94.80;;;;;;5091212;27;38696;-58
2022/05/16 04:25:01;;;;;;;;;;;13.70;95.10;;;;;;5088875;27;40520;-58
2022/05/16 04:27:28;;;;;;;;;;;13.90;94.80;;;;;;5089815;27;36273;-57
2022/05/16 04:29:57;;;;;;;;;;;13.80;94.30;;;;;;5087832;27;36658;-58
2022/05/16 04:32:24;;;;;;;;;;;13.90;94.60;;;;;;5087230;27;36637;-59
2022/05/16 04:34:51;;;;;;;;;;;14.00;94.40;;;;;;5089661;27;38746;-59
2022/05/16 04:37:18;;;;;;;;;;;14.00;94.30;;;;;;5088381;27;35201;-58
2022/05/16 04:39:45;;;;;;;;;;;14.10;94.30;;;;;;5086522;27;38558;-58
2022/05/16 04:44:58;;;;;;;;;;;14.40;93.70;;;;;;5090029;27;39436;-58
2022/05/16 04:47:27;;;;;;;;;;;14.40;93.60;;;;;;5088523;27;37491;-58
2022/05/16 04:49:54;;;;;;;;;;;14.50;93.30;;;;;;5086756;27;37643;-58
2022/05/16 04:52:22;;;;;;;;;;;14.60;93.10;;;;;;5089321;27;37773;-59
2022/05/16 04:54:49;;;;;;;;;;;14.70;93.30;;;;;;5087673;27;36230;-58
2022/05/16 04:57:17;;;;;;;;;;;14.80;92.50;;;;;;5089305;27;37338;-58
2022/05/16 04:59:46;;;;;;;;;;;14.80;92.30;;;;;;5091261;27;36347;-58
2022/05/16 05:02:15;;;;;;;;;;;14.90;92.50;;;;;;5091893;27;39124;-58
2022/05/16 05:04:42;;;;;;;;;;;14.90;92.50;;;;;;5092082;27;37822;-58
2022/05/16 05:07:09;;;;;;;;;;;15.00;92.20;;;;;;5092236;27;36566;-49
2022/05/16 05:14:32;;;;;;;;;;;15.00;91.80;;;;;;5093863;27;37909;-45
2022/05/16 05:15:11;;;;;;;;;;;15.00;90.90;;;;;;5091674;27;39390;-59
2022/05/16 05:17:40;;;;;;;;;;;15.00;92.00;;;;;;5092044;27;37243;-47
2022/05/16 05:20:13;;;;;;;;;;;14.90;92.10;;;;;;5089291;27;38140;-50
2022/05/16 05:22:41;;;;;;;;;;;14.90;92.50;;;;;;5092679;27;37214;-46
2022/05/16 05:25:09;;;;;;;;;;;14.80;92.70;;;;;;5091664;27;36367;-48
2022/05/16 05:27:36;;;;;;;;;;;14.70;92.90;;;;;;5090998;27;38596;-46
2022/05/16 05:30:03;;;;;;;;;;;14.60;93.00;;;;;;5091027;27;38007;-45
2022/05/16 05:32:30;;;;;;;;;;;14.60;93.70;;;;;;5091646;27;37714;-47
2022/05/16 05:34:59;;;;;;;;;;;14.60;93.70;;;;;;5094050;27;39698;-45
2022/05/16 05:37:26;;;;;;;;;;;14.60;94.00;;;;;;5091358;27;37160;-46
2022/05/16 05:39:54;;;;;;;;;;;14.60;93.80;;;;;;5093845;27;37984;-45
2022/05/16 05:42:21;;;;;;;;;;;14.60;93.70;;;;;;5089317;27;40683;-45
2022/05/16 05:44:48;;;;;;;;;;;14.60;93.70;;;;;;5092778;27;37353;-48
2022/05/16 05:47:15;;;;;;;;;;;14.70;93.70;;;;;;5091627;27;35134;-45
2022/05/16 05:49:43;;;;;;;;;;;14.80;94.00;;;;;;5091796;27;39115;-46
2022/05/16 05:52:11;;;;;;;;;;;14.80;94.20;;;;;;5090595;27;38676;-45
2022/05/16 05:54:38;;;;;;;;;;;14.90;93.50;;;;;;5090686;27;37348;-45
2022/05/16 05:57:06;;;;;;;;;;;14.90;93.20;;;;;;5086475;27;37855;-45
2022/05/16 05:59:33;;;;;;;;;;;14.80;93.70;;;;;;5090800;27;38403;-47
2022/05/16 06:02:00;;;;;;;;;;;14.80;93.60;;;;;;5090477;27;36675;-45
2022/05/16 06:04:27;;;;;;;;;;;14.80;93.50;;;;;;5089772;27;37214;-50
2022/05/16 06:06:55;;;;;;;;;;;14.80;94.30;;;;;;5089884;27;35124;-47
2022/05/16 06:09:23;;;;;;;;;;;14.90;94.30;;;;;;5085564;27;39455;-47
2022/05/16 06:11:50;;;;;;;;;;;15.10;93.80;;;;;;5090778;27;38637;-49
2022/05/16 06:14:17;;;;;;;;;;;15.20;93.80;;;;;;5090621;27;37290;-47
2022/05/16 06:16:44;;;;;;;;;;;15.30;93.70;;;;;;5090729;27;37470;-47
2022/05/16 06:19:12;;;;;;;;;;;15.50;93.50;;;;;;5092132;27;37958;-46
2022/05/16 06:21:39;;;;;;;;;;;15.70;92.40;;;;;;5090933;27;37560;-50
2022/05/16 06:25:31;;;;;;;;;;;16.00;91.80;;;;;;5089628;27;38270;-45
2022/05/16 06:26:54;;;;;;;;;;;16.20;91.70;;;;;;5089870;27;37985;-47
2022/05/16 06:29:22;;;;;;;;;;;16.40;92.10;;;;;;5090441;27;38556;-48
2022/05/16 06:31:49;;;;;;;;;;;16.60;91.10;;;;;;5090541;27;38749;-48
2022/05/16 06:34:16;;;;;;;;;;;16.80;90.90;;;;;;5089888;27;39117;-48
2022/05/16 06:36:43;;;;;;;;;;;17.00;90.90;;;;;;5088516;27;35418;-47
2022/05/16 06:39:10;;;;;;;;;;;17.20;89.50;;;;;;5087441;27;37753;-58
2022/05/16 06:41:37;;;;;;;;;;;17.40;90.00;;;;;;5091477;27;37716;-59
2022/05/16 06:44:05;;;;;;;;;;;17.50;87.40;;;;;;5089392;27;37268;-59
2022/05/16 06:46:33;;;;;;;;;;;17.60;86.20;;;;;;5090130;27;36607;-59
2022/05/16 06:49:00;;;;;;;;;;;17.70;83.50;;;;;;5091009;27;37559;-59
2022/05/16 06:51:28;;;;;;;;;;;17.80;84.90;;;;;;5088674;27;36992;-59
2022/05/16 06:53:55;;;;;;;;;;;18.00;86.10;;;;;;5092150;27;37253;-59
2022/05/16 06:56:22;;;;;;;;;;;18.10;85.60;;;;;;5090132;27;37012;-59
2022/05/16 06:58:49;;;;;;;;;;;18.20;83.60;;;;;;5090815;27;36582;-59
2022/05/16 07:01:18;;;;;;;;;;;18.30;84.80;;;;;;5091588;27;38108;-60
2022/05/16 07:03:45;;;;;;;;;;;18.40;84.10;;;;;;5090744;27;37387;-59
2022/05/16 07:06:14;;;;;;;;;;;18.50;83.50;;;;;;5091712;27;36213;-60
2022/05/16 07:08:42;;;;;;;;;;;18.60;80.40;;;;;;5091921;27;36559;-59
2022/05/16 07:11:09;;;;;;;;;;;18.60;83.80;;;;;;5091393;27;38241;-59
2022/05/16 07:13:36;;;;;;;;;;;18.70;82.30;;;;;;5090874;27;37320;-59
2022/05/16 07:16:04;;;;;;;;;;;18.70;80.90;;;;;;5091860;27;36711;-60
2022/05/16 07:18:32;;;;;;;;;;;18.60;82.10;;;;;;5090113;27;40105;-59
2022/05/16 07:21:00;;;;;;;;;;;18.50;81.80;;;;;;5091116;27;37973;-59
2022/05/16 07:23:27;;;;;;;;;;;18.50;82.10;;;;;;5090202;27;36012;-60
2022/05/16 07:28:41;;;;;;;;;;;18.50;81.60;;;;;;5090913;27;38390;-59
2022/05/16 07:31:09;;;;;;;;;;;18.60;83.50;;;;;;5091342;27;38622;-59
2022/05/16 07:33:37;;;;;;;;;;;18.70;81.20;;;;;;5091239;27;36859;-60
2022/05/16 07:36:05;;;;;;;;;;;18.90;80.20;;;;;;5089696;27;36427;-60
2022/05/16 07:38:33;;;;;;;;;;;19.10;80.90;;;;;;5087823;27;38327;-59
2022/05/16 07:41:00;;;;;;;;;;;19.20;81.50;;;;;;5083107;27;37168;-59
2022/05/16 07:43:27;;;;;;;;;;;19.30;80.40;;;;;;5088930;27;38913;-59
2022/05/16 07:45:55;;;;;;;;;;;19.30;76.50;;;;;;5089644;27;36937;-59
2022/05/16 07:48:22;;;;;;;;;;;19.40;79.50;;;;;;5089913;27;37544;-59
2022/05/16 07:50:50;;;;;;;;;;;19.50;79.10;;;;;;5089922;27;37825;-59
2022/05/16 07:53:18;;;;;;;;;;;19.60;80.90;;;;;;5089315;27;35865;-60
2022/05/16 07:55:46;;;;;;;;;;;19.70;76.20;;;;;;5086227;27;36020;-59
2022/05/16 07:58:13;;;;;;;;;;;19.70;79.70;;;;;;5086124;27;39259;-59
2022/05/16 08:00:41;;;;;;;;;;;19.80;77.10;;;;;;5089124;27;37499;-59
2022/05/16 08:03:09;;;;;;;;;;;19.90;76.10;;;;;;5088403;27;37667;-60
2022/05/16 08:05:36;;;;;;;;;;;20.00;75.20;;;;;;5087120;27;38632;-60
2022/05/16 08:10:50;;;;;;;;;;;20.00;75.30;;;;;;5088534;27;38723;-59
2022/05/16 08:13:17;;;;;;;;;;;20.10;75.90;;;;;;5088476;27;37747;-60
2022/05/16 08:15:44;;;;;;;;;;;20.20;74.40;;;;;;5087856;27;36387;-60
2022/05/16 08:18:12;;;;;;;;;;;20.20;75.80;;;;;;5088405;27;37959;-48
2022/05/16 08:20:42;;;;;;;;;;;20.40;77.70;;;;;;5089218;27;37658;-50
2022/05/16 08:23:11;;;;;;;;;;;20.50;77.20;;;;;;5088089;27;37164;-50
2022/05/16 08:25:39;;;;;;;;;;;20.60;74.30;;;;;;5087756;27;37033;-49
2022/05/16 08:28:07;;;;;;;;;;;20.70;75.60;;;;;;5089697;27;38418;-46
2022/05/16 08:30:34;;;;;;;;;;;20.80;76.50;;;;;;5088936;27;37817;-47
2022/05/16 08:33:02;;;;;;;;;;;20.90;76.00;;;;;;5089829;27;38904;-49
2022/05/16 08:35:29;;;;;;;;;;;21.00;75.10;;;;;;5087977;27;36491;-47
2022/05/16 08:40:48;;;;;;;;;;;21.30;73.20;;;;;;5089326;27;38885;-49
2022/05/16 08:43:16;;;;;;;;;;;21.40;70.90;;;;;;5089968;27;35925;-51
2022/05/16 08:45:47;;;;;;;;;;;21.50;70.80;;;;;;5090537;27;36863;-48
2022/05/16 08:48:17;;;;;;;;;;;21.50;70.30;;;;;;5088952;27;38211;-50
2022/05/16 08:50:49;;;;;;;;;;;21.60;70.50;;;;;;5086575;27;37607;-49
2022/05/16 08:53:18;;;;;;;;;;;21.70;70.70;;;;;;5089991;27;37302;-49
2022/05/16 08:55:48;;;;;;;;;;;21.90;68.50;;;;;;5086530;27;37455;-48
2022/05/16 08:58:17;;;;;;;;;;;21.90;68.60;;;;;;5085090;27;39493;-47
2022/05/16 09:00:48;;;;;;;;;;;21.80;68.60;;;;;;5085266;27;38177;-50
2022/05/16 09:03:16;;;;;;;;;;;21.70;70.20;;;;;;5088014;27;36092;-49
2022/05/16 09:05:48;;;;;;;;;;;21.70;70.60;;;;;;5082769;27;35144;-49
2022/05/16 09:08:31;;;;;;;;;;;21.70;71.70;;;;;;5079529;27;36771;-46
2022/05/16 09:11:04;;;;;;;;;;;21.60;70.50;;;;;;5086233;27;37207;-47
2022/05/16 09:13:39;;;;;;;;;;;21.60;69.00;;;;;;5086436;27;36807;-51
2022/05/16 09:16:10;;;;;;;;;;;21.50;69.90;;;;;;5086828;27;36468;-49
2022/05/16 09:18:41;;;;;;;;;;;21.40;70.10;;;;;;5087151;27;38384;-50
2022/05/16 09:21:12;;;;;;;;;;;21.30;72.10;;;;;;5088658;27;37864;-47
2022/05/16 09:23:45;;;;;;;;;;;21.30;71.70;;;;;;5086208;27;35916;-46
2022/05/16 09:26:18;;;;;;;;;;;21.20;72.60;;;;;;5088560;27;37030;-46
2022/05/16 09:28:47;;;;;;;;;;;21.30;74.10;;;;;;5089647;27;37259;-49
2022/05/16 09:31:17;;;;;;;;;;;21.40;74.70;;;;;;5088397;27;36874;-45
2022/05/16 09:33:45;;;;;;;;;;;21.60;74.30;;;;;;5088114;27;36770;-49
2022/05/16 09:36:13;;;;;;;;;;;21.80;74.30;;;;;;5085973;27;37644;-48
2022/05/16 09:38:44;;;;;;;;;;;21.90;72.60;;;;;;5087580;27;38606;-50
2022/05/16 09:41:15;;;;;;;;;;;22.00;72.50;;;;;;5086916;27;38800;-49
2022/05/16 09:43:45;;;;;;;;;;;22.20;71.70;;;;;;5089521;27;37042;-50
2022/05/16 09:46:33;;;;;;;;;;;22.40;70.60;;;;;;5091368;27;36970;-48
2022/05/16 09:49:04;;;;;;;;;;;22.40;70.30;;;;;;5087214;27;37657;-46
2022/05/16 09:51:31;;;;;;;;;;;22.60;72.00;;;;;;5091551;27;38504;-49
2022/05/16 09:54:10;;;;;;;;;;;22.80;70.20;;;;;;5092057;27;37008;-48
2022/05/16 09:56:37;;;;;;;;;;;22.90;69.10;;;;;;5092475;27;38074;-47
2022/05/16 09:59:06;;;;;;;;;;;23.10;68.40;;;;;;5089587;27;36403;-50
2022/05/16 10:01:34;;;;;;;;;;;23.40;66.40;;;;;;5091025;27;36567;-49
2022/05/16 10:04:09;;;;;;;;;;;23.60;67.10;;;;;;5090631;27;36200;-47
2022/05/16 10:06:41;;;;;;;;;;;23.80;65.80;;;;;;5092312;27;36342;-49
2022/05/16 10:09:09;;;;;;;;;;;24.10;68.20;;;;;;5093268;27;37866;-46
2022/05/16 10:11:37;;;;;;;;;;;24.30;65.40;;;;;;5092767;27;36783;-47
2022/05/16 10:14:05;;;;;;;;;;;24.50;61.00;;;;;;5091605;27;36229;-51
2022/05/16 10:16:33;;;;;;;;;;;24.60;60.90;;;;;;5091852;27;36629;-48
2022/05/16 10:19:02;;;;;;;;;;;24.60;61.50;;;;;;5091061;27;37265;-50
2022/05/16 10:21:32;;;;;;;;;;;24.50;61.70;;;;;;5093496;27;40647;-50
2022/05/16 10:24:00;;;;;;;;;;;24.50;59.60;;;;;;5090512;27;37756;-50
2022/05/16 10:26:29;;;;;;;;;;;24.30;55.40;;;;;;5090429;27;37924;-47
2022/05/16 10:28:58;;;;;;;;;;;24.20;57.20;;;;;;5090792;27;38452;-50
2022/05/16 10:34:21;;;;;;;;;;;23.80;57.20;;;;;;5092250;27;37311;-49
2022/05/16 10:36:51;;;;;;;;;;;23.70;60.60;;;;;;5085400;27;36855;-51
2022/05/16 10:39:20;;;;;;;;;;;23.70;58.90;;;;;;5094769;27;38635;-50
2022/05/16 10:41:51;;;;;;;;;;;23.70;61.40;;;;;;5090320;27;38211;-49
2022/05/16 10:44:23;;;;;;;;;;;23.80;59.10;;;;;;5091005;27;37427;-48
2022/05/16 10:46:59;;;;;;;;;;;23.80;60.50;;;;;;5091743;27;37734;-47
2022/05/16 10:49:30;;;;;;;;;;;23.90;61.70;;;;;;5091066;27;37696;-51
2022/05/16 10:52:00;;;;;;;;;;;24.00;60.20;;;;;;5092412;27;37954;-50
2022/05/16 10:54:28;;;;;;;;;;;24.00;57.20;;;;;;5091328;27;37102;-52
2022/05/16 10:57:13;;;;;;;;;;;24.00;57.70;;;;;;5089977;27;36138;-50
2022/05/16 10:59:48;;;;;;;;;;;23.90;58.30;;;;;;5085322;27;36360;-50
2022/05/16 11:02:23;;;;;;;;;;;24.00;61.30;;;;;;5078141;27;39484;-48
2022/05/16 11:04:57;;;;;;;;;;;24.10;60.20;;;;;;5087740;27;37965;-49
2022/05/16 11:07:27;;;;;;;;;;;24.20;60.50;;;;;;5088985;27;35303;-47
2022/05/16 11:09:58;;;;;;;;;;;24.20;58.70;;;;;;5090816;27;37712;-47
2022/05/16 11:12:28;;;;;;;;;;;24.20;58.80;;;;;;5089800;27;38053;-49
2022/05/16 11:14:58;;;;;;;;;;;24.00;58.40;;;;;;5090853;27;36086;-50
2022/05/16 11:17:31;;;;;;;;;;;23.90;59.80;;;;;;5089526;27;36188;-50
2022/05/16 11:20:04;;;;;;;;;;;23.80;61.20;;;;;;5090704;27;37296;-50
2022/05/16 11:22:33;;;;;;;;;;;23.70;59.00;;;;;;5089065;27;38061;-51
2022/05/16 11:25:04;;;;;;;;;;;23.60;59.20;;;;;;5091834;27;37464;-51
2022/05/16 11:27:35;;;;;;;;;;;23.50;61.40;;;;;;5091567;27;37684;-51
2022/05/16 11:30:06;;;;;;;;;;;23.40;60.10;;;;;;5092244;27;37528;-47
2022/05/16 11:32:42;;;;;;;;;;;23.30;60.60;;;;;;5090845;27;36662;-51
2022/05/16 11:35:12;;;;;;;;;;;23.20;61.60;;;;;;5091858;27;37447;-51
2022/05/16 11:37:52;;;;;;;;;;;23.10;61.80;;;;;;5091268;27;35711;-49
2022/05/16 11:40:22;;;;;;;;;;;23.10;62.50;;;;;;5091610;27;37976;-49
2022/05/16 11:42:51;;;;;;;;;;;23.00;64.10;;;;;;5091658;27;36649;-48
2022/05/16 11:45:24;;;;;;;;;;;23.00;64.10;;;;;;5090695;27;37330;-50
2022/05/16 11:47:57;;;;;;;;;;;23.00;64.60;;;;;;5089411;27;35926;-50
2022/05/16 11:50:27;;;;;;;;;;;23.00;64.10;;;;;;5092294;27;38165;-50
2022/05/16 11:53:01;;;;;;;;;;;23.00;65.40;;;;;;5092724;27;37574;-50
2022/05/16 12:01:03;;;;;;;;;;;23.00;64.90;;;;;;5092325;27;38968;-48
2022/05/16 12:03:36;;;;;;;;;;;23.00;66.40;;;;;;5089873;27;38517;-50
2022/05/16 12:06:31;;;;;;;;;;;23.00;68.00;;;;;;5090273;27;35990;-50
2022/05/16 12:09:16;;;;;;;;;;;23.00;70.30;;;;;;5051907;27;37045;-49
2022/05/16 12:11:51;;;;;;;;;;;23.00;70.60;;;;;;5091184;27;36578;-51
2022/05/16 12:14:27;;;;;;;;;;;23.10;72.20;;;;;;5090044;27;38526;-48
2022/05/16 12:16:56;;;;;;;;;;;23.10;71.90;;;;;;5089937;27;40348;-46
2022/05/16 12:19:29;;;;;;;;;;;23.10;74.50;;;;;;5090807;27;35126;-48
2022/05/16 12:21:58;;;;;;;;;;;23.10;74.30;;;;;;5090823;27;36619;-49
2022/05/16 12:24:33;;;;;;;;;;;23.20;74.00;;;;;;5090448;27;38955;-50
2022/05/16 12:27:05;;;;;;;;;;;23.10;72.60;;;;;;5084605;27;38024;-49
2022/05/16 12:29:39;;;;;;;;;;;23.10;71.80;;;;;;5090097;27;35101;-49
2022/05/16 12:32:06;;;;;;;;;;;23.00;74.90;;;;;;5081716;27;37620;-48
2022/05/16 12:34:44;;;;;;;;;;;23.00;75.30;;;;;;5088773;27;38859;-50
2022/05/16 12:37:12;;;;;;;;;;;22.90;74.10;;;;;;5089914;27;38425;-47
2022/05/16 12:39:43;;;;;;;;;;;22.80;75.10;;;;;;5090117;27;36986;-50
2022/05/16 12:42:19;;;;;;;;;;;22.80;74.50;;;;;;5084484;27;37431;-48
2022/05/16 12:44:53;;;;;;;;;;;22.70;73.80;;;;;;5090475;27;38981;-47
2022/05/16 12:47:44;;;;;;;;;;;22.60;76.10;;;;;;5086068;27;38456;-49
2022/05/16 12:50:32;;;;;;;;;;;22.60;76.40;;;;;;5089824;27;35334;-50
2022/05/16 12:53:14;;;;;;;;;;;22.50;80.10;;;;;;5090727;27;37874;-48
2022/05/16 12:55:54;;;;;;;;;;;22.50;80.60;;;;;;5090454;27;37689;-49
2022/05/16 12:58:25;;;;;;;;;;;22.50;78.90;;;;;;5089398;27;36495;-51
2022/05/16 13:00:56;;;;;;;;;;;22.50;79.00;;;;;;5090004;27;38085;-47
2022/05/16 13:03:30;;;;;;;;;;;22.60;81.00;;;;;;5090137;27;38505;-49
2022/05/16 13:06:00;;;;;;;;;;;22.50;79.90;;;;;;5089964;27;37731;-51
2022/05/16 13:08:32;;;;;;;;;;;22.60;81.70;;;;;;5090617;27;37440;-48
2022/05/16 13:11:05;;;;;;;;;;;22.70;81.10;;;;;;5091522;27;38992;-50
2022/05/16 13:13:41;;;;;;;;;;;22.80;80.60;;;;;;5091210;27;38671;-48
2022/05/16 13:16:13;;;;;;;;;;;22.90;82.10;;;;;;5090612;27;36724;-49
2022/05/16 13:18:43;;;;;;;;;;;22.90;81.00;;;;;;5092858;27;36590;-48
2022/05/16 13:21:13;;;;;;;;;;;23.00;79.40;;;;;;5094229;27;36176;-47
2022/05/16 13:23:40;;;;;;;;;;;23.00;79.20;;;;;;5095102;27;36517;-50
2022/05/16 13:31:39;;;;;;;;;;;23.00;82.10;;;;;;5092177;27;37440;-50
2022/05/16 13:34:06;;;;;;;;;;;22.90;84.40;;;;;;5092132;27;38178;-49
2022/05/16 13:36:35;;;;;;;;;;;22.90;83.60;;;;;;5092443;27;36860;-50
2022/05/16 13:39:03;;;;;;;;;;;22.90;84.00;;;;;;5093529;27;36140;-49
2022/05/16 13:41:32;;;;;;;;;;;22.80;82.50;;;;;;5092205;27;36441;-48
2022/05/16 13:43:59;;;;;;;;;;;22.70;83.60;;;;;;5092161;27;39236;-48
2022/05/16 13:46:27;;;;;;;;;;;22.70;83.70;;;;;;5093370;27;37906;-48
2022/05/16 13:48:55;;;;;;;;;;;22.60;84.20;;;;;;5092352;27;37590;-51
2022/05/16 13:51:22;;;;;;;;;;;22.50;85.00;;;;;;5092458;27;36204;-48
2022/05/16 13:53:51;;;;;;;;;;;22.50;85.00;;;;;;5093122;27;39361;-47
2022/05/16 13:56:33;;;;;;;;;;;22.40;85.40;;;;;;5091550;27;38916;-49
2022/05/16 13:59:01;;;;;;;;;;;22.40;85.00;;;;;;5090891;27;37754;-50
2022/05/16 14:01:28;;;;;;;;;;;22.30;86.20;;;;;;5083757;27;37240;-48
2022/05/16 14:03:59;;;;;;;;;;;22.30;86.10;;;;;;5087429;27;36580;-51
2022/05/16 14:06:31;;;;;;;;;;;22.30;86.20;;;;;;5091579;27;37814;-51
2022/05/16 14:09:03;;;;;;;;;;;22.30;86.80;;;;;;5088252;27;37786;-51
2022/05/16 14:11:31;;;;;;;;;;;22.40;87.80;;;;;;5090967;27;35128;-51
2022/05/16 14:13:59;;;;;;;;;;;22.40;87.60;;;;;;5091658;27;37097;-50
2022/05/16 14:16:28;;;;;;;;;;;22.50;87.70;;;;;;5092597;27;38177;-51
2022/05/16 14:19:00;;;;;;;;;;;22.50;89.70;;;;;;5091574;27;37624;-50
2022/05/16 14:21:28;;;;;;;;;;;22.70;88.80;;;;;;5093854;27;36031;-49
2022/05/16 14:24:00;;;;;;;;;;;22.70;88.20;;;;;;5093324;27;38234;-51
2022/05/16 14:26:30;;;;;;;;;;;22.70;88.10;;;;;;5094401;27;38849;-47
2022/05/16 14:29:00;;;;;;;;;;;22.90;87.10;;;;;;5089053;27;38315;-60
2022/05/16 14:31:28;;;;;;;;;;;22.90;87.40;;;;;;5092188;27;37076;-60
2022/05/16 14:33:57;;;;;;;;;;;22.90;86.70;;;;;;5090296;27;37789;-61
2022/05/16 14:36:25;;;;;;;;;;;23.00;85.90;;;;;;5091847;27;37366;-60
2022/05/16 14:38:53;;;;;;;;;;;23.00;86.90;;;;;;5092670;27;37017;-60
2022/05/16 14:41:22;;;;;;;;;;;23.00;86.20;;;;;;5091729;27;36451;-60
2022/05/16 14:43:57;;;;;;;;;;;23.00;87.60;;;;;;5092786;27;37344;-60
2022/05/16 14:46:45;;;;;;;;;;;23.00;87.10;;;;;;5094221;27;37439;-60
2022/05/16 14:49:13;;;;;;;;;;;23.00;87.40;;;;;;5092843;27;38466;-60
2022/05/16 14:51:41;;;;;;;;;;;23.00;86.50;;;;;;5093484;27;35653;-60
2022/05/16 14:54:15;;;;;;;;;;;23.00;86.60;;;;;;5093936;27;37985;-60
2022/05/16 14:56:43;;;;;;;;;;;23.00;86.50;;;;;;5093530;27;37708;-60
2022/05/16 14:59:11;;;;;;;;;;;23.00;86.00;;;;;;5092309;27;37277;-60
2022/05/16 15:04:23;;;;;;;;;;;22.90;87.10;;;;;;5090498;27;39328;-60
2022/05/16 15:06:51;;;;;;;;;;;22.90;87.40;;;;;;5089475;27;38025;-60
2022/05/16 15:09:20;;;;;;;;;;;22.90;87.70;;;;;;5092309;27;37750;-60
2022/05/16 15:11:49;;;;;;;;;;;22.80;88.80;;;;;;5089263;27;36294;-60
2022/05/16 15:14:18;;;;;;;;;;;22.70;90.30;;;;;;5089582;27;37556;-61